Time;durP1;ratioP1;P1;durP2;ratioP2;P2;SDS_P1;SDS_P2;PMS_P1;PMS_P2;Temp;Humidity;BMP_temperature;BMP_pressure;BME280_temperature;BME280_humidity;BME280_pressure;Samples;Min_cycle;Max_cycle;Signal;HPM_P1;HPM_P2
2023/12/02 00:01:16;;;;;;;;;;;0.20;81.70;;;;;;4130870;28;19925;-83
2023/12/02 00:03:35;;;;;;;;;;;0.30;81.80;;;;;;4130492;28;19941;-86
2023/12/02 00:05:54;;;;;;;;;;;0.30;81.90;;;;;;4129753;28;20012;-83
2023/12/02 00:08:13;;;;;;;;;;;0.30;82.70;;;;;;4129256;28;19968;-85
2023/12/02 00:10:32;;;;;;;;;;;0.30;81.90;;;;;;4155651;28;19924;-84
2023/12/02 00:12:52;;;;;;;;;;;0.30;82.00;;;;;;4124073;28;20116;-83
2023/12/02 00:15:11;;;;;;;;;;;0.30;82.20;;;;;;4131923;28;19971;-80
2023/12/02 00:17:30;;;;;;;;;;;0.30;82.20;;;;;;4125068;28;19921;-82
2023/12/02 00:19:50;;;;;;;;;;;0.30;82.20;;;;;;4128841;28;19921;-84
2023/12/02 00:22:09;;;;;;;;;;;0.50;82.10;;;;;;4131133;28;19928;-83
2023/12/02 00:24:31;;;;;;;;;;;0.40;82.10;;;;;;4132652;28;19997;-84
2023/12/02 00:26:51;;;;;;;;;;;0.40;82.00;;;;;;4129555;28;19952;-83
2023/12/02 00:29:10;;;;;;;;;;;0.40;82.00;;;;;;4132768;28;19993;-83
2023/12/02 00:31:29;;;;;;;;;;;0.40;82.30;;;;;;4132287;28;19924;-82
2023/12/02 00:33:49;;;;;;;;;;;0.40;82.00;;;;;;4131381;28;19928;-82
2023/12/02 00:36:08;;;;;;;;;;;0.40;82.10;;;;;;4131009;28;19922;-83
2023/12/02 00:38:27;;;;;;;;;;;0.40;82.20;;;;;;4129670;28;19925;-83
2023/12/02 00:40:47;;;;;;;;;;;0.40;82.10;;;;;;4130454;28;19928;-81
2023/12/02 00:43:06;;;;;;;;;;;0.50;82.90;;;;;;4116650;28;19929;-82
2023/12/02 00:45:25;;;;;;;;;;;0.40;82.10;;;;;;4131572;28;19924;-84
2023/12/02 00:47:44;;;;;;;;;;;0.50;82.20;;;;;;4130161;28;19924;-82
2023/12/02 00:50:04;;;;;;;;;;;0.50;82.30;;;;;;4128431;28;20402;-81
2023/12/02 00:52:23;;;;;;;;;;;0.50;82.20;;;;;;4126974;28;19984;-82
2023/12/02 00:54:44;;;;;;;;;;;0.50;82.20;;;;;;4128342;28;20438;-82
2023/12/02 00:57:07;;;;;;;;;;;0.50;82.40;;;;;;4114809;28;19921;-82
2023/12/02 00:59:28;;;;;;;;;;;0.50;82.30;;;;;;4131277;28;20343;-81
2023/12/02 01:01:49;;;;;;;;;;;0.40;82.30;;;;;;4131736;28;19929;-82
2023/12/02 01:04:09;;;;;;;;;;;0.50;82.50;;;;;;4129704;28;19918;-84
2023/12/02 01:06:29;;;;;;;;;;;0.40;82.30;;;;;;4129326;28;19934;-82
2023/12/02 01:08:50;;;;;;;;;;;0.40;82.30;;;;;;4112950;28;19914;-84
2023/12/02 01:11:10;;;;;;;;;;;0.40;82.40;;;;;;4118260;28;20005;-81
2023/12/02 01:13:31;;;;;;;;;;;0.40;82.40;;;;;;4119263;28;19990;-82
2023/12/02 01:15:51;;;;;;;;;;;0.40;82.30;;;;;;4118748;28;20008;-83
2023/12/02 01:18:12;;;;;;;;;;;0.50;82.30;;;;;;4125168;28;20316;-83
2023/12/02 01:20:32;;;;;;;;;;;0.40;82.40;;;;;;4128273;28;19977;-81
2023/12/02 01:22:53;;;;;;;;;;;0.40;82.30;;;;;;4130765;28;19918;-83
2023/12/02 01:25:13;;;;;;;;;;;0.40;82.50;;;;;;4120509;28;20449;-82
2023/12/02 01:27:34;;;;;;;;;;;0.40;82.60;;;;;;4130726;28;20472;-83
2023/12/02 01:29:54;;;;;;;;;;;0.40;82.50;;;;;;4132830;28;19918;-82
2023/12/02 01:32:15;;;;;;;;;;;0.40;82.50;;;;;;4127035;28;19914;-83
2023/12/02 01:34:35;;;;;;;;;;;0.40;82.60;;;;;;4129377;28;19914;-82
2023/12/02 01:36:56;;;;;;;;;;;0.40;82.60;;;;;;4127465;28;20475;-82
2023/12/02 01:39:16;;;;;;;;;;;0.40;82.90;;;;;;4131902;28;20083;-82
2023/12/02 01:41:37;;;;;;;;;;;0.40;82.80;;;;;;4127883;28;20433;-83
2023/12/02 01:43:58;;;;;;;;;;;0.40;82.90;;;;;;4142590;28;19914;-82
2023/12/02 01:46:18;;;;;;;;;;;0.40;82.90;;;;;;4129119;28;19918;-83
2023/12/02 01:48:39;;;;;;;;;;;0.40;82.90;;;;;;4131566;28;19949;-83
2023/12/02 01:51:00;;;;;;;;;;;0.40;82.90;;;;;;4130081;28;20027;-82
2023/12/02 01:53:22;;;;;;;;;;;0.40;82.90;;;;;;4124309;28;20482;-82
2023/12/02 01:55:22;;;;;;;;;;;0.40;82.90;;;;;;4142821;28;19917;-84
2023/12/02 01:57:23;;;;;;;;;;;0.40;82.90;;;;;;4127277;28;19917;-83
2023/12/02 01:59:24;;;;;;;;;;;0.40;82.90;;;;;;4127216;28;19917;-83
2023/12/02 02:01:24;;;;;;;;;;;0.40;82.80;;;;;;4132778;28;20072;-82
2023/12/02 02:03:25;;;;;;;;;;;0.40;82.80;;;;;;4127108;28;19999;-82
2023/12/02 02:05:25;;;;;;;;;;;0.40;82.70;;;;;;4140312;28;20065;-83
2023/12/02 02:07:26;;;;;;;;;;;0.40;82.90;;;;;;4140751;28;19941;-83
2023/12/02 02:09:34;;;;;;;;;;;0.40;82.90;;;;;;4145379;28;19922;-82
2023/12/02 02:11:56;;;;;;;;;;;0.40;82.90;;;;;;4125038;28;19933;-82
2023/12/02 02:13:57;;;;;;;;;;;0.40;82.90;;;;;;4144779;28;19914;-83
2023/12/02 02:16:17;;;;;;;;;;;0.40;82.90;;;;;;4142783;28;19922;-82
2023/12/02 02:18:38;;;;;;;;;;;0.40;82.90;;;;;;4142601;28;19916;-82
2023/12/02 02:20:58;;;;;;;;;;;0.40;82.90;;;;;;4131662;28;19922;-83
2023/12/02 02:23:20;;;;;;;;;;;0.40;83.00;;;;;;4143929;28;19963;-83
2023/12/02 02:25:40;;;;;;;;;;;0.40;83.00;;;;;;4145955;28;19917;-81
2023/12/02 02:28:01;;;;;;;;;;;0.40;82.90;;;;;;4129488;28;20497;-80
2023/12/02 02:30:22;;;;;;;;;;;0.40;82.90;;;;;;4146184;28;19983;-83
2023/12/02 02:32:42;;;;;;;;;;;0.30;82.90;;;;;;4138413;28;20380;-82
2023/12/02 02:35:03;;;;;;;;;;;0.30;83.00;;;;;;4144275;28;19913;-82
2023/12/02 02:37:24;;;;;;;;;;;0.40;83.00;;;;;;4128051;28;19914;-82
2023/12/02 02:39:44;;;;;;;;;;;0.40;83.00;;;;;;4139849;28;19984;-82
2023/12/02 02:42:08;;;;;;;;;;;0.40;83.10;;;;;;4128718;28;19918;-81
2023/12/02 02:44:29;;;;;;;;;;;0.40;83.10;;;;;;4129655;28;19937;-82
2023/12/02 02:46:49;;;;;;;;;;;0.40;83.20;;;;;;4126654;28;19921;-81
2023/12/02 02:49:10;;;;;;;;;;;0.40;83.20;;;;;;4127475;28;20549;-81
2023/12/02 02:51:30;;;;;;;;;;;0.30;83.20;;;;;;4129794;28;20339;-83
2023/12/02 02:53:51;;;;;;;;;;;0.30;83.20;;;;;;4131039;28;19914;-83
2023/12/02 02:56:11;;;;;;;;;;;0.30;84.00;;;;;;4131152;28;20477;-83
2023/12/02 02:58:36;;;;;;;;;;;0.30;83.20;;;;;;4128709;28;19953;-82
2023/12/02 03:00:57;;;;;;;;;;;0.40;83.20;;;;;;4129602;28;21484;-83
2023/12/02 03:03:18;;;;;;;;;;;0.40;83.30;;;;;;4133599;28;19910;-82
2023/12/02 03:05:38;;;;;;;;;;;0.40;83.20;;;;;;4129733;28;20422;-82
2023/12/02 03:07:59;;;;;;;;;;;0.30;83.10;;;;;;4126505;28;20099;-81
2023/12/02 03:10:19;;;;;;;;;;;0.30;83.00;;;;;;4130535;28;20283;-80
2023/12/02 03:12:40;;;;;;;;;;;0.30;83.20;;;;;;4127999;28;19914;-83
2023/12/02 03:15:00;;;;;;;;;;;0.40;83.10;;;;;;4129511;28;20360;-82
2023/12/02 03:17:21;;;;;;;;;;;0.30;82.90;;;;;;4125028;28;19978;-82
2023/12/02 03:19:41;;;;;;;;;;;0.30;83.10;;;;;;4140419;28;21322;-82
2023/12/02 03:22:02;;;;;;;;;;;0.30;82.90;;;;;;4126330;28;19918;-82
2023/12/02 03:24:23;;;;;;;;;;;0.40;83.00;;;;;;4126806;28;20017;-82
2023/12/02 03:26:43;;;;;;;;;;;0.30;83.00;;;;;;4128907;28;19913;-82
2023/12/02 03:29:04;;;;;;;;;;;0.40;83.10;;;;;;4123990;28;19914;-82
2023/12/02 03:31:24;;;;;;;;;;;0.30;83.10;;;;;;4126723;28;19983;-83
2023/12/02 03:33:45;;;;;;;;;;;0.30;83.00;;;;;;4129283;28;19921;-82
2023/12/02 03:36:06;;;;;;;;;;;0.30;83.00;;;;;;4128670;28;20487;-82
2023/12/02 03:38:26;;;;;;;;;;;0.40;83.10;;;;;;4133633;28;20535;-83
2023/12/02 03:40:47;;;;;;;;;;;0.40;83.10;;;;;;4130672;28;20303;-82
2023/12/02 03:43:07;;;;;;;;;;;0.40;83.90;;;;;;4118107;28;19915;-83
2023/12/02 03:45:28;;;;;;;;;;;0.40;83.10;;;;;;4125976;28;20645;-83
2023/12/02 03:47:48;;;;;;;;;;;0.40;83.20;;;;;;4127844;28;20355;-83
2023/12/02 03:50:09;;;;;;;;;;;0.40;83.20;;;;;;4131765;28;19921;-83
2023/12/02 03:52:28;;;;;;;;;;;0.40;83.10;;;;;;4132867;28;19929;-83
2023/12/02 03:54:47;;;;;;;;;;;0.40;83.80;;;;;;4130179;28;19980;-83
2023/12/02 03:57:06;;;;;;;;;;;0.40;83.00;;;;;;4129631;28;20288;-84
2023/12/02 03:59:26;;;;;;;;;;;0.40;83.00;;;;;;4130236;28;19994;-83
2023/12/02 04:01:45;;;;;;;;;;;0.40;82.70;;;;;;4131121;28;19956;-83
2023/12/02 04:04:05;;;;;;;;;;;0.50;82.60;;;;;;4128476;28;19925;-83
2023/12/02 04:06:24;;;;;;;;;;;0.30;83.20;;;;;;4129483;28;20057;-82
2023/12/02 04:08:43;;;;;;;;;;;0.40;82.60;;;;;;4117910;28;19977;-82
2023/12/02 04:11:03;;;;;;;;;;;0.30;82.30;;;;;;4115660;28;20427;-82
2023/12/02 04:13:22;;;;;;;;;;;0.30;82.30;;;;;;4119509;28;20034;-82
2023/12/02 04:15:42;;;;;;;;;;;0.30;82.50;;;;;;4117915;28;19955;-82
2023/12/02 04:18:01;;;;;;;;;;;0.40;82.50;;;;;;4132392;28;19920;-81
2023/12/02 04:20:21;;;;;;;;;;;0.40;83.30;;;;;;4130029;28;19936;-82
2023/12/02 04:22:41;;;;;;;;;;;0.40;82.40;;;;;;4132034;28;19925;-83
2023/12/02 04:25:00;;;;;;;;;;;0.30;82.40;;;;;;4129145;28;19929;-83
2023/12/02 04:27:19;;;;;;;;;;;0.30;82.40;;;;;;4128570;28;19984;-82
2023/12/02 04:29:41;;;;;;;;;;;0.50;82.50;;;;;;4132119;28;20023;-83
2023/12/02 04:32:00;;;;;;;;;;;0.30;82.10;;;;;;4129838;28;21443;-83
2023/12/02 04:34:19;;;;;;;;;;;0.30;82.30;;;;;;4117533;28;19941;-83
2023/12/02 04:36:38;;;;;;;;;;;0.30;82.00;;;;;;4131470;28;19925;-82
2023/12/02 04:38:58;;;;;;;;;;;0.30;82.10;;;;;;4120483;28;19925;-82
2023/12/02 04:41:17;;;;;;;;;;;0.30;82.20;;;;;;4130314;28;20454;-82
2023/12/02 04:43:36;;;;;;;;;;;0.30;82.10;;;;;;4128011;28;19925;-82
2023/12/02 04:45:56;;;;;;;;;;;0.30;81.90;;;;;;4127868;28;19921;-83
2023/12/02 04:48:15;;;;;;;;;;;0.30;81.90;;;;;;4132469;28;19941;-83
2023/12/02 04:50:34;;;;;;;;;;;0.30;81.80;;;;;;4127618;28;19932;-82
2023/12/02 04:52:54;;;;;;;;;;;0.30;81.70;;;;;;4129118;28;19961;-82
2023/12/02 04:55:13;;;;;;;;;;;0.30;81.80;;;;;;4119737;28;20259;-82
2023/12/02 04:57:32;;;;;;;;;;;0.30;81.70;;;;;;4130358;28;19938;-82
2023/12/02 04:59:51;;;;;;;;;;;0.30;81.70;;;;;;4128207;28;19968;-83
2023/12/02 05:02:11;;;;;;;;;;;0.30;81.70;;;;;;4131520;28;19936;-83
2023/12/02 05:04:30;;;;;;;;;;;0.30;81.40;;;;;;4131160;28;19924;-83
2023/12/02 05:06:50;;;;;;;;;;;0.30;81.10;;;;;;4132264;28;20374;-83
2023/12/02 05:09:09;;;;;;;;;;;0.30;81.10;;;;;;4123721;28;19929;-82
2023/12/02 05:11:28;;;;;;;;;;;0.30;80.90;;;;;;4125757;28;20020;-81
2023/12/02 05:13:48;;;;;;;;;;;0.30;81.00;;;;;;4131241;28;20325;-82
2023/12/02 05:16:07;;;;;;;;;;;0.30;81.10;;;;;;4129578;28;20024;-80
2023/12/02 05:18:26;;;;;;;;;;;0.30;80.90;;;;;;4128483;28;20554;-83
2023/12/02 05:20:46;;;;;;;;;;;0.30;80.80;;;;;;4128300;28;19921;-83
2023/12/02 05:23:05;;;;;;;;;;;0.30;81.20;;;;;;4130467;28;19932;-82
2023/12/02 05:25:24;;;;;;;;;;;0.30;81.20;;;;;;4128503;28;19933;-83
2023/12/02 05:27:44;;;;;;;;;;;0.30;80.40;;;;;;4113840;28;19981;-82
2023/12/02 05:30:04;;;;;;;;;;;0.30;81.20;;;;;;4130910;28;19937;-81
2023/12/02 05:32:23;;;;;;;;;;;0.30;80.40;;;;;;4119204;28;19994;-82
2023/12/02 05:34:43;;;;;;;;;;;0.30;80.10;;;;;;4115982;28;19937;-83
2023/12/02 05:37:02;;;;;;;;;;;0.30;80.10;;;;;;4128339;28;19961;-83
2023/12/02 05:39:22;;;;;;;;;;;0.30;79.80;;;;;;4117202;28;20383;-83
2023/12/02 05:41:44;;;;;;;;;;;0.30;79.50;;;;;;4121244;28;19940;-83
2023/12/02 05:44:03;;;;;;;;;;;0.30;79.60;;;;;;4127369;28;19948;-81
2023/12/02 05:46:22;;;;;;;;;;;0.30;79.80;;;;;;4135779;28;19977;-83
2023/12/02 05:48:45;;;;;;;;;;;0.30;79.60;;;;;;4129244;28;19929;-83
2023/12/02 05:51:05;;;;;;;;;;;0.20;79.00;;;;;;4128530;28;19927;-81
2023/12/02 05:53:24;;;;;;;;;;;0.20;78.60;;;;;;4130862;28;19929;-82
2023/12/02 05:55:48;;;;;;;;;;;0.20;78.60;;;;;;4126329;28;19948;-82
2023/12/02 05:58:08;;;;;;;;;;;0.20;79.40;;;;;;4129686;28;19925;-82
2023/12/02 06:00:27;;;;;;;;;;;0.20;78.60;;;;;;4127213;28;19924;-82
2023/12/02 06:02:47;;;;;;;;;;;0.20;78.70;;;;;;4127033;28;20414;-83
2023/12/02 06:05:06;;;;;;;;;;;0.20;78.90;;;;;;4129210;28;19929;-82
2023/12/02 06:07:25;;;;;;;;;;;0.20;78.90;;;;;;4126266;28;20294;-82
2023/12/02 06:09:44;;;;;;;;;;;0.20;78.60;;;;;;4131839;28;19924;-83
2023/12/02 06:12:04;;;;;;;;;;;0.20;78.50;;;;;;4130561;28;20033;-82
2023/12/02 06:14:23;;;;;;;;;;;0.20;79.30;;;;;;4131579;28;19957;-82
2023/12/02 06:16:42;;;;;;;;;;;0.10;77.90;;;;;;4131441;28;20610;-82
2023/12/02 06:19:02;;;;;;;;;;;0.20;78.20;;;;;;4132135;28;19924;-81
2023/12/02 06:21:21;;;;;;;;;;;0.10;77.90;;;;;;4131629;28;19937;-82
2023/12/02 06:23:40;;;;;;;;;;;0.10;77.60;;;;;;4130961;28;20025;-82
2023/12/02 06:25:59;;;;;;;;;;;0.10;77.80;;;;;;4130831;28;19928;-83
2023/12/02 06:28:20;;;;;;;;;;;0.10;77.70;;;;;;4129418;28;19964;-83
2023/12/02 06:30:39;;;;;;;;;;;0.10;77.90;;;;;;4129599;28;20494;-82
2023/12/02 06:32:58;;;;;;;;;;;0.10;78.00;;;;;;4132028;28;20454;-83
2023/12/02 06:35:18;;;;;;;;;;;0.10;77.90;;;;;;4126905;28;19952;-81
2023/12/02 06:37:37;;;;;;;;;;;0.10;77.80;;;;;;4130582;28;19921;-81
2023/12/02 06:39:56;;;;;;;;;;;0.10;77.80;;;;;;4125913;28;20465;-82
2023/12/02 06:42:15;;;;;;;;;;;0.10;78.80;;;;;;4137371;28;19925;-81
2023/12/02 06:44:34;;;;;;;;;;;0.10;77.70;;;;;;4145688;28;19964;-82
2023/12/02 06:46:53;;;;;;;;;;;0.00;77.60;;;;;;4143995;28;20362;-80
2023/12/02 06:49:13;;;;;;;;;;;0.10;77.60;;;;;;4143058;28;20579;-83
2023/12/02 06:51:32;;;;;;;;;;;0.10;77.80;;;;;;4143303;28;19928;-82
2023/12/02 06:53:51;;;;;;;;;;;0.10;77.80;;;;;;4143973;28;19920;-81
2023/12/02 06:56:18;;;;;;;;;;;0.00;77.60;;;;;;4141591;28;19956;-83
2023/12/02 06:58:37;;;;;;;;;;;0.00;77.60;;;;;;4144512;28;19936;-83
2023/12/02 07:00:56;;;;;;;;;;;0.10;77.90;;;;;;4125964;28;19940;-83
2023/12/02 07:03:15;;;;;;;;;;;0.00;77.90;;;;;;4143232;28;20384;-84
2023/12/02 07:05:35;;;;;;;;;;;0.00;77.90;;;;;;4128792;28;20344;-82
2023/12/02 07:07:54;;;;;;;;;;;0.00;77.90;;;;;;4139947;28;19933;-82
2023/12/02 07:10:13;;;;;;;;;;;0.00;78.00;;;;;;4143780;28;20478;-83
2023/12/02 07:12:33;;;;;;;;;;;0.00;78.00;;;;;;4127820;28;19944;-82
2023/12/02 07:14:52;;;;;;;;;;;0.00;78.00;;;;;;4127702;28;19953;-82
2023/12/02 07:17:11;;;;;;;;;;;0.00;78.80;;;;;;4137449;28;19940;-83
2023/12/02 07:19:31;;;;;;;;;;;0.00;78.20;;;;;;4140599;28;19987;-82
2023/12/02 07:21:51;;;;;;;;;;;0.00;78.30;;;;;;4129202;28;19925;-83
2023/12/02 07:24:10;;;;;;;;;;;0.00;78.30;;;;;;4128349;28;19929;-84
2023/12/02 07:26:29;;;;;;;;;;;0.00;77.90;;;;;;4128412;28;19917;-83
2023/12/02 07:28:48;;;;;;;;;;;0.00;78.00;;;;;;4140107;28;19929;-82
2023/12/02 07:31:14;;;;;;;;;;;0.00;78.00;;;;;;4139578;28;19928;-84
2023/12/02 07:33:33;;;;;;;;;;;0.00;77.90;;;;;;4143559;28;19921;-83
2023/12/02 07:35:52;;;;;;;;;;;0.00;77.90;;;;;;4144348;28;19928;-84
2023/12/02 07:38:12;;;;;;;;;;;0.00;77.90;;;;;;4140773;28;19933;-85
2023/12/02 07:40:31;;;;;;;;;;;0.00;78.00;;;;;;4127756;28;19933;-83
2023/12/02 07:42:50;;;;;;;;;;;-0.10;77.90;;;;;;4130994;28;19925;-84
2023/12/02 07:45:09;;;;;;;;;;;0.00;78.20;;;;;;4139679;28;19928;-83
2023/12/02 07:47:29;;;;;;;;;;;0.00;78.30;;;;;;4141033;28;20043;-84
2023/12/02 07:49:48;;;;;;;;;;;-0.10;78.10;;;;;;4128836;28;20004;-83
2023/12/02 07:52:07;;;;;;;;;;;0.00;78.10;;;;;;4155203;28;20028;-81
2023/12/02 07:54:27;;;;;;;;;;;0.00;78.20;;;;;;4127589;28;19960;-83
2023/12/02 07:56:46;;;;;;;;;;;0.00;78.20;;;;;;4126172;28;19921;-83
2023/12/02 07:59:06;;;;;;;;;;;-0.10;77.90;;;;;;4138463;28;19936;-83
2023/12/02 08:01:25;;;;;;;;;;;0.00;78.70;;;;;;4143048;28;19931;-83
2023/12/02 08:03:44;;;;;;;;;;;0.00;78.10;;;;;;4131415;28;19932;-83
2023/12/02 08:06:03;;;;;;;;;;;0.00;78.20;;;;;;4126116;28;20576;-83
2023/12/02 08:08:22;;;;;;;;;;;0.00;78.20;;;;;;4139534;28;19929;-83
2023/12/02 08:10:42;;;;;;;;;;;0.00;78.20;;;;;;4134192;28;21218;-83
2023/12/02 08:13:03;;;;;;;;;;;0.00;78.30;;;;;;4132014;28;20294;-84
2023/12/02 08:15:22;;;;;;;;;;;0.00;78.30;;;;;;4132068;28;20473;-83
2023/12/02 08:17:41;;;;;;;;;;;0.00;78.30;;;;;;4129970;28;20442;-83
2023/12/02 08:20:01;;;;;;;;;;;0.00;78.40;;;;;;4144683;28;19992;-82
2023/12/02 08:22:24;;;;;;;;;;;0.10;78.40;;;;;;4134675;28;19928;-83
2023/12/02 08:24:43;;;;;;;;;;;0.00;78.30;;;;;;4142294;28;19925;-82
2023/12/02 08:27:02;;;;;;;;;;;0.10;79.20;;;;;;4135838;28;19980;-83
2023/12/02 08:29:22;;;;;;;;;;;0.10;79.20;;;;;;4132714;28;19968;-82
2023/12/02 08:31:41;;;;;;;;;;;0.10;78.30;;;;;;4131726;28;19920;-84
2023/12/02 08:34:00;;;;;;;;;;;0.10;78.10;;;;;;4138060;28;19919;-83
2023/12/02 08:36:20;;;;;;;;;;;0.10;78.30;;;;;;4142155;28;20437;-84
2023/12/02 08:38:39;;;;;;;;;;;0.10;78.80;;;;;;4133289;28;19917;-83
2023/12/02 08:40:58;;;;;;;;;;;0.20;79.00;;;;;;4131304;28;20532;-83
2023/12/02 08:43:17;;;;;;;;;;;0.10;78.10;;;;;;4130708;28;19928;-83
2023/12/02 08:45:36;;;;;;;;;;;0.10;77.90;;;;;;4131987;28;19921;-84
2023/12/02 08:47:56;;;;;;;;;;;0.10;78.40;;;;;;4134088;28;20457;-84
2023/12/02 08:50:15;;;;;;;;;;;0.10;77.80;;;;;;4130132;28;19942;-84
2023/12/02 08:52:34;;;;;;;;;;;0.20;77.80;;;;;;4125215;28;19925;-83
2023/12/02 08:54:53;;;;;;;;;;;0.20;78.60;;;;;;4125636;28;19925;-84
2023/12/02 08:57:13;;;;;;;;;;;0.20;77.80;;;;;;4110077;28;20456;-83
2023/12/02 08:59:33;;;;;;;;;;;0.20;78.00;;;;;;4123816;28;19941;-83
2023/12/02 09:01:52;;;;;;;;;;;0.20;78.10;;;;;;4111741;28;19972;-84
2023/12/02 09:04:11;;;;;;;;;;;0.20;78.00;;;;;;4124612;28;20004;-81
2023/12/02 09:06:30;;;;;;;;;;;0.20;77.70;;;;;;4123462;28;19924;-83
2023/12/02 09:08:50;;;;;;;;;;;0.20;77.70;;;;;;4121794;28;19944;-83
2023/12/02 09:11:13;;;;;;;;;;;0.10;77.50;;;;;;4119718;28;19928;-85
2023/12/02 09:13:32;;;;;;;;;;;0.10;77.50;;;;;;4134442;28;19929;-83
2023/12/02 09:15:52;;;;;;;;;;;0.10;77.60;;;;;;4119612;28;20574;-83
2023/12/02 09:18:11;;;;;;;;;;;0.10;77.70;;;;;;4121218;28;19921;-82
2023/12/02 09:20:47;;;;;;;;;;;0.10;77.60;;;;;;4139322;28;19972;-83
2023/12/02 09:23:06;;;;;;;;;;;0.10;78.40;;;;;;4125701;28;19956;-83
2023/12/02 09:25:28;;;;;;;;;;;0.10;77.70;;;;;;4124678;28;20040;-83
2023/12/02 09:28:06;;;;;;;;;;;0.10;77.70;;;;;;4125904;28;19917;-82
2023/12/02 09:30:25;;;;;;;;;;;0.10;77.80;;;;;;4126795;28;19924;-81
2023/12/02 09:32:45;;;;;;;;;;;0.10;77.90;;;;;;4110560;28;19921;-83
2023/12/02 09:35:04;;;;;;;;;;;0.10;77.90;;;;;;4130215;28;19926;-83
2023/12/02 09:37:05;;;;;;;;;;;0.10;77.80;;;;;;4124118;28;20403;-83
2023/12/02 09:39:09;;;;;;;;;;;0.00;77.70;;;;;;4124346;28;19920;-83
2023/12/02 09:41:15;;;;;;;;;;;0.00;77.60;;;;;;4128594;28;19914;-83
2023/12/02 09:43:22;;;;;;;;;;;-0.10;77.50;;;;;;4429101;22;19939;-83
2023/12/02 09:45:29;;;;;;;;;;;-0.10;77.50;;;;;;4130321;28;19914;-82
2023/12/02 09:47:31;;;;;;;;;;;-0.10;77.50;;;;;;4130429;28;19945;-82
2023/12/02 09:49:37;;;;;;;;;;;-0.20;77.50;;;;;;4141686;28;20005;-81
2023/12/02 09:51:56;;;;;;;;;;;-0.20;77.40;;;;;;4142557;28;19932;-82
2023/12/02 09:54:07;;;;;;;;;;;-0.20;77.40;;;;;;4145809;28;19943;-83
2023/12/02 09:56:15;;;;;;;;;;;-0.30;77.30;;;;;;4126322;28;19928;-83
2023/12/02 09:58:16;;;;;;;;;;;-0.30;77.30;;;;;;4129980;28;19925;-83
2023/12/02 10:00:16;;;;;;;;;;;-0.30;77.20;;;;;;4138137;28;19918;-83
2023/12/02 10:02:41;;;;;;;;;;;-0.30;77.00;;;;;;4144051;28;19920;-83
2023/12/02 10:04:45;;;;;;;;;;;-0.30;77.00;;;;;;4145164;28;19996;-84
2023/12/02 10:06:49;;;;;;;;;;;-0.40;77.10;;;;;;4129232;28;19984;-84
2023/12/02 10:08:56;;;;;;;;;;;-0.40;77.10;;;;;;4145951;28;19945;-85
2023/12/02 10:11:18;;;;;;;;;;;-0.40;77.10;;;;;;4110133;28;19930;-83
2023/12/02 10:13:20;;;;;;;;;;;-0.40;77.10;;;;;;4142677;28;20431;-84
2023/12/02 10:15:23;;;;;;;;;;;-0.30;77.10;;;;;;4109276;28;19934;-83
2023/12/02 10:17:25;;;;;;;;;;;-0.30;76.90;;;;;;4135450;28;19913;-81
2023/12/02 10:19:44;;;;;;;;;;;-0.30;76.90;;;;;;4146194;28;19964;-83
2023/12/02 10:21:45;;;;;;;;;;;-0.30;77.00;;;;;;4142690;28;19929;-81
2023/12/02 10:23:46;;;;;;;;;;;-0.30;77.20;;;;;;4126302;28;20354;-83
2023/12/02 10:25:46;;;;;;;;;;;-0.20;77.40;;;;;;4133400;28;19914;-83
2023/12/02 10:27:48;;;;;;;;;;;-0.20;77.70;;;;;;4126859;28;20631;-83
2023/12/02 10:30:03;;;;;;;;;;;-0.20;77.90;;;;;;4127315;28;20567;-83
2023/12/02 10:32:07;;;;;;;;;;;-0.10;78.00;;;;;;4125595;28;19922;-83
2023/12/02 10:34:28;;;;;;;;;;;-0.10;78.10;;;;;;4128960;28;19920;-83
2023/12/02 10:36:35;;;;;;;;;;;-0.10;78.30;;;;;;4139158;28;19975;-84
2023/12/02 10:38:37;;;;;;;;;;;-0.10;78.30;;;;;;4127684;28;20438;-83
2023/12/02 10:40:38;;;;;;;;;;;0.00;78.50;;;;;;4131188;28;19939;-84
2023/12/02 10:42:58;;;;;;;;;;;0.00;78.40;;;;;;4126759;28;20446;-84
2023/12/02 10:45:02;;;;;;;;;;;0.00;78.40;;;;;;4157671;28;20442;-83
2023/12/02 10:47:05;;;;;;;;;;;0.00;78.30;;;;;;4142418;28;20335;-84
2023/12/02 10:49:06;;;;;;;;;;;0.00;78.40;;;;;;4132813;28;19924;-85
2023/12/02 10:51:13;;;;;;;;;;;0.00;78.40;;;;;;4139811;28;19956;-85
2023/12/02 10:53:35;;;;;;;;;;;0.10;78.50;;;;;;4154172;28;19925;-84
2023/12/02 10:56:00;;;;;;;;;;;0.10;78.50;;;;;;4159247;28;20121;-85
2023/12/02 10:58:03;;;;;;;;;;;0.10;78.50;;;;;;4159242;28;19924;-84
2023/12/02 11:00:25;;;;;;;;;;;0.20;78.60;;;;;;4145921;28;20486;-84
2023/12/02 11:02:45;;;;;;;;;;;0.20;78.60;;;;;;4145825;28;20148;-84
2023/12/02 11:05:09;;;;;;;;;;;0.20;78.60;;;;;;4151386;28;19968;-84
2023/12/02 11:07:31;;;;;;;;;;;0.30;78.60;;;;;;4141861;28;19918;-84
2023/12/02 11:09:56;;;;;;;;;;;0.30;78.70;;;;;;4152375;28;19909;-84
2023/12/02 11:12:22;;;;;;;;;;;0.50;78.80;;;;;;4156315;28;19919;-84
2023/12/02 11:14:43;;;;;;;;;;;0.40;78.70;;;;;;4152382;28;20327;-84
2023/12/02 11:17:13;;;;;;;;;;;0.50;78.90;;;;;;4150800;28;19910;-84
2023/12/02 11:19:52;;;;;;;;;;;0.50;78.90;;;;;;4146298;28;19929;-85
2023/12/02 11:22:12;;;;;;;;;;;0.50;78.80;;;;;;4155005;28;19913;-84
2023/12/02 11:24:32;;;;;;;;;;;0.60;78.90;;;;;;4151296;28;19917;-84
2023/12/02 11:27:09;;;;;;;;;;;0.60;78.90;;;;;;4155620;28;19914;-84
2023/12/02 11:29:29;;;;;;;;;;;0.70;78.90;;;;;;4152774;28;20042;-83
2023/12/02 11:32:02;;;;;;;;;;;0.70;78.90;;;;;;4140665;28;19917;-85
2023/12/02 11:34:33;;;;;;;;;;;0.80;79.00;;;;;;4169599;28;20290;-83
2023/12/02 11:37:04;;;;;;;;;;;0.90;79.20;;;;;;4157424;28;19984;-83
2023/12/02 11:39:31;;;;;;;;;;;1.00;79.30;;;;;;4156080;28;19975;-84
2023/12/02 11:41:54;;;;;;;;;;;1.10;79.40;;;;;;4152921;28;19960;-84
2023/12/02 11:44:34;;;;;;;;;;;1.10;79.50;;;;;;4156117;28;20210;-85
2023/12/02 11:46:57;;;;;;;;;;;1.20;79.60;;;;;;4149504;28;19922;-84
2023/12/02 11:49:27;;;;;;;;;;;1.20;79.40;;;;;;4141726;28;20012;-85
2023/12/02 11:52:08;;;;;;;;;;;1.30;79.20;;;;;;4146133;28;20724;-84
2023/12/02 11:54:32;;;;;;;;;;;1.30;79.10;;;;;;4161016;28;20237;-85
2023/12/02 11:57:05;;;;;;;;;;;1.30;78.80;;;;;;4161361;28;19967;-84
2023/12/02 11:59:30;;;;;;;;;;;1.30;78.70;;;;;;4162572;28;20524;-86
2023/12/02 12:01:57;;;;;;;;;;;1.30;78.50;;;;;;4158773;28;19917;-84
2023/12/02 12:04:21;;;;;;;;;;;1.30;78.40;;;;;;4157826;28;19913;-85
2023/12/02 12:06:47;;;;;;;;;;;1.30;78.30;;;;;;4154547;28;19917;-85
2023/12/02 12:09:08;;;;;;;;;;;1.30;78.20;;;;;;4136134;28;20409;-84
2023/12/02 12:11:30;;;;;;;;;;;1.30;78.20;;;;;;4154528;28;20169;-83
2023/12/02 12:13:51;;;;;;;;;;;1.30;78.10;;;;;;4153664;28;19921;-85
2023/12/02 12:16:12;;;;;;;;;;;1.30;78.00;;;;;;4142169;28;19945;-85
2023/12/02 12:18:32;;;;;;;;;;;1.30;77.90;;;;;;4140210;28;19917;-83
2023/12/02 12:20:55;;;;;;;;;;;1.30;77.70;;;;;;4155021;28;19920;-85
2023/12/02 12:23:15;;;;;;;;;;;1.30;77.60;;;;;;4161231;28;19945;-83
2023/12/02 12:25:36;;;;;;;;;;;1.30;77.50;;;;;;4154266;28;20393;-85
2023/12/02 12:28:01;;;;;;;;;;;1.30;77.60;;;;;;4149276;28;19932;-85
2023/12/02 12:30:22;;;;;;;;;;;1.30;77.70;;;;;;4131033;28;19922;-85
2023/12/02 12:32:42;;;;;;;;;;;1.30;77.60;;;;;;4162990;28;20462;-84
2023/12/02 12:35:08;;;;;;;;;;;1.30;77.80;;;;;;4163424;28;19968;-86
2023/12/02 12:37:27;;;;;;;;;;;1.40;77.80;;;;;;4156942;28;19920;-82
2023/12/02 12:39:47;;;;;;;;;;;1.40;78.50;;;;;;4153339;28;20067;-85
2023/12/02 12:42:07;;;;;;;;;;;1.40;78.00;;;;;;4148730;28;19967;-85
2023/12/02 12:44:26;;;;;;;;;;;1.50;78.20;;;;;;4156686;28;19923;-84
2023/12/02 12:46:45;;;;;;;;;;;1.50;78.20;;;;;;4162367;28;19928;-85
2023/12/02 12:49:07;;;;;;;;;;;1.60;78.30;;;;;;4142779;28;19924;-84
2023/12/02 12:51:28;;;;;;;;;;;1.60;77.30;;;;;;4159476;28;19924;-86
2023/12/02 12:53:58;;;;;;;;;;;1.60;76.90;;;;;;4156423;28;19940;-84
2023/12/02 12:56:32;;;;;;;;;;;1.60;76.00;;;;;;4156339;28;19948;-85
2023/12/02 12:59:01;;;;;;;;;;;1.70;76.30;;;;;;4140685;28;19928;-82
2023/12/02 13:01:21;;;;;;;;;;;1.70;75.90;;;;;;4154769;28;19936;-85
2023/12/02 13:03:50;;;;;;;;;;;1.70;74.90;;;;;;4155065;28;20247;-85
2023/12/02 13:06:14;;;;;;;;;;;1.60;74.80;;;;;;4155550;28;19968;-86
2023/12/02 13:08:36;;;;;;;;;;;1.60;74.80;;;;;;4142808;28;19925;-84
2023/12/02 13:10:58;;;;;;;;;;;1.60;74.10;;;;;;4148902;28;21380;-85
2023/12/02 13:13:17;;;;;;;;;;;1.60;75.10;;;;;;4156447;28;19967;-83
2023/12/02 13:15:38;;;;;;;;;;;1.50;74.20;;;;;;4167240;28;19958;-83
2023/12/02 13:17:59;;;;;;;;;;;1.40;73.50;;;;;;4147198;28;20183;-84
2023/12/02 13:20:19;;;;;;;;;;;1.40;73.40;;;;;;4161436;28;19924;-86
2023/12/02 13:22:39;;;;;;;;;;;1.40;72.50;;;;;;4154909;28;19967;-84
2023/12/02 13:25:18;;;;;;;;;;;1.30;72.40;;;;;;4160523;28;19942;-84
2023/12/02 13:27:39;;;;;;;;;;;1.30;71.30;;;;;;4138311;28;19953;-84
2023/12/02 13:30:02;;;;;;;;;;;1.30;71.20;;;;;;4158955;28;19924;-84
2023/12/02 13:32:21;;;;;;;;;;;1.10;70.90;;;;;;4150690;28;20024;-86
2023/12/02 13:34:48;;;;;;;;;;;1.10;71.30;;;;;;4149576;28;19924;-85
2023/12/02 13:37:07;;;;;;;;;;;1.00;70.40;;;;;;4158361;28;19983;-85
2023/12/02 13:39:27;;;;;;;;;;;1.00;70.60;;;;;;4150968;28;20050;-85